Shell Beach, CA (93449)

4:28 AM PST on February 06, 2016 (GMT -0800)
shell beach | | Change Station
CLOSE
Current Station
Personal Weather Station
Location: Pismo Beach, CA
Elevation: 59 ft
Nearby Weather Stations
Active Advisory: High Surf Advisory

Elev 59 ft 35.16 °N, 120.67 °W | Updated 12 minutes ago

Partly Cloudy
Partly Cloudy
46.2 °F
Feels Like 46 °F
N
0.0
Wind Variable Wind from ESE

Today
High -- | Low -- °F
--% Chance of Precip.
Yesterday
High -- | Low -- °F
Precip. -- in
Pressure 30.31 in
Visibility 10.0 miles
Clouds Clear
Windchill 46 °F
Dew Point 40 °F
Humidity 79%
Rainfall 0.00 in
Snow Depth Not available.
6:57 AM 5:35 PM
Waning Crescent, 6% visible
METAR KSBP 061156Z VRB03KT 10SM CLR 08/03 A3031 RMK AO2 SLP262 T00830033 10106 20061 55020
Pressure 30.31 in
Visibility 10.0 miles
Clouds Clear
Windchill 46 °F
Dew Point 40 °F
Humidity 79%
Rainfall 0.00 in
Snow Depth Not available.
6:57 AM 5:35 PM
Waning Crescent, 6% visible
METAR KSBP 061156Z VRB03KT 10SM CLR 08/03 A3031 RMK AO2 SLP262 T00830033 10106 20061 55020

10-Day Weather Forecast

Almanac

Astronomy

Feb. 06, 2016 Rise Set
Actual Time
Civil Twilight
Nautical Twilight
Astronomical Twilight
Moon
Length of Visible Light
Length of Day
Tomorrow will be .
, % of the Moon is Illuminated

Today's Extremes

State Highs State Lows

Community

WunderPhotos

Upload Photos

1,890,944 photos uploaded!

WunderBlog® & News

Nearby

Air Quality

  Air Quality AQ Index Pollutant
Not available.

Snow Depth

Station Depth Elevation

Earthquake Activity

City Distance Mag. Time & Date
Minimum magnitude displayed is 2.5.

Coastal Water Temperatures

Place Temperature

Stations

Nearby Weather Stations

Station Location Temp. Windchill Dew Point Humidity Wind Precip. Elev Updated Type
                   

Watches & Warnings

High Surf Advisory
Issued: 2:17 AM PST Feb. 6, 2016 – National Weather Service

... High surf advisory remains in effect until 6 am PST early this
morning...

* surf and timing... surf of 10 to 15 feet will slowly subside
through this morning. The largest surf will be on exposed west
to northwest facing beaches.

* Impacts... the large surf may cause minor beach erosion and
strong rip currents that will create a risk of ocean drowning.
Sneaker waves can suddenly overrun previously dry beaches and
jetties.

Precautionary/preparedness actions...

A high surf advisory means that high surf and rip currents will
make swimming and rock jetties dangerous.

Remember... if caught in a rip current... swim parallel to shore
until you are free of the powerful current. Always swim near a
lifeguard.